Time;durP1;ratioP1;P1;durP2;ratioP2;P2;SDS_P1;SDS_P2;PMS_P1;PMS_P2;Temp;Humidity;BMP_temperature;BMP_pressure;BME280_temperature;BME280_humidity;BME280_pressure;Samples;Min_cycle;Max_cycle;Signal;HPM_P1;HPM_P2
2023/09/13 00:00:58;;;;;;;;;;;;;;;22.31;49.26;101884.18;110319;1259;22445;-50
2023/09/13 00:03:26;;;;;;;;;;;;;;;22.26;49.39;101887.08;110426;1256;22431;-50
2023/09/13 00:05:54;;;;;;;;;;;;;;;22.24;49.42;101887.58;110376;1276;22383;-49
2023/09/13 00:08:21;;;;;;;;;;;;;;;22.21;49.34;101889.31;110318;1256;22412;-49
2023/09/13 00:10:52;;;;;;;;;;;;;;;22.17;49.38;101890.56;110438;1259;23191;-49
2023/09/13 00:13:19;;;;;;;;;;;;;;;22.15;49.39;101891.21;110412;1259;22405;-49
2023/09/13 00:15:47;;;;;;;;;;;;;;;22.15;49.43;101887.52;110420;1259;23075;-49
2023/09/13 00:18:15;;;;;;;;;;;;;;;22.15;49.44;101887.14;110302;1276;22379;-49
2023/09/13 00:20:43;;;;;;;;;;;;;;;22.16;49.47;101887.44;110428;1270;22415;-49
2023/09/13 00:23:11;;;;;;;;;;;;;;;22.18;49.48;101889.30;110339;1276;22383;-49
2023/09/13 00:25:38;;;;;;;;;;;;;;;22.19;49.35;101890.31;110400;1276;22388;-49
2023/09/13 00:28:06;;;;;;;;;;;;;;;22.20;49.38;101892.02;110349;1259;22431;-49
2023/09/13 00:30:33;;;;;;;;;;;;;;;22.21;49.20;101891.63;110387;1256;22416;-50
2023/09/13 00:33:02;;;;;;;;;;;;;;;22.21;49.19;101890.38;110404;1276;22380;-49
2023/09/13 00:35:30;;;;;;;;;;;;;;;22.20;48.99;101887.05;110428;1259;22413;-50
2023/09/13 00:37:57;;;;;;;;;;;;;;;22.18;48.97;101889.27;110451;1259;22402;-49
2023/09/13 00:40:25;;;;;;;;;;;;;;;22.17;48.92;101884.40;110309;1258;23094;-49
2023/09/13 00:42:53;;;;;;;;;;;;;;;22.14;48.88;101884.02;110425;1256;22418;-49
2023/09/13 00:45:21;;;;;;;;;;;;;;;22.11;48.92;101881.00;110290;1276;23216;-49
2023/09/13 00:47:48;;;;;;;;;;;;;;;22.07;48.94;101881.02;110317;1276;23160;-49
2023/09/13 00:50:16;;;;;;;;;;;;;;;22.04;48.91;101876.95;110046;1262;22432;-49
2023/09/13 00:52:44;;;;;;;;;;;;;;;22.00;49.03;101880.52;110403;1276;22395;-49
2023/09/13 00:55:11;;;;;;;;;;;;;;;21.96;48.99;101880.17;110318;1276;22365;-49
2023/09/13 00:57:39;;;;;;;;;;;;;;;21.92;49.04;101879.31;110045;1262;22437;-50
2023/09/13 01:00:10;;;;;;;;;;;;;;;21.88;49.15;101877.77;110313;1276;22398;-49
2023/09/13 01:02:38;;;;;;;;;;;;;;;21.85;49.32;101881.27;110414;1276;22383;-49
2023/09/13 01:05:09;;;;;;;;;;;;;;;21.82;49.35;101877.55;110354;1256;23035;-50
2023/09/13 01:07:40;;;;;;;;;;;;;;;21.78;49.58;101876.65;110437;1259;23210;-50
2023/09/13 01:10:08;;;;;;;;;;;;;;;21.76;49.64;101878.87;110371;1256;22416;-49
2023/09/13 01:12:35;;;;;;;;;;;;;;;21.75;49.71;101876.66;110454;1256;22402;-49
2023/09/13 01:15:06;;;;;;;;;;;;;;;21.74;49.75;101874.92;110421;1256;22403;-49
2023/09/13 01:17:54;;;;;;;;;;;;;;;21.74;49.73;101874.89;110439;1259;22434;-49
2023/09/13 01:20:40;;;;;;;;;;;;;;;21.75;49.83;101875.93;109817;1268;23139;-49
2023/09/13 01:23:10;;;;;;;;;;;;;;;21.77;49.76;101877.09;110006;1262;23092;-50
2023/09/13 01:25:46;;;;;;;;;;;;;;;21.78;49.79;101876.17;110014;1262;22421;-50
2023/09/13 01:28:20;;;;;;;;;;;;;;;21.78;49.74;101877.02;110004;1261;22430;-48
2023/09/13 01:30:47;;;;;;;;;;;;;;;21.80;49.75;101875.86;110000;1264;22430;-50
2023/09/13 01:33:15;;;;;;;;;;;;;;;21.81;49.76;101874.39;109238;1283;1002294;-49
2023/09/13 01:35:43;;;;;;;;;;;;;;;21.82;49.80;101875.05;110008;1260;22447;-53
2023/09/13 01:38:10;;;;;;;;;;;;;;;21.83;49.70;101876.25;109972;1283;22411;-50
2023/09/13 01:40:39;;;;;;;;;;;;;;;21.84;49.77;101879.59;110001;1265;23082;-49
2023/09/13 01:43:06;;;;;;;;;;;;;;;21.83;49.71;101879.11;109948;1283;23124;-50
2023/09/13 01:45:35;;;;;;;;;;;;;;;21.81;49.69;101879.38;109923;1266;22515;-49
2023/09/13 01:48:03;;;;;;;;;;;;;;;21.78;49.66;101879.11;110019;1261;23063;-49
2023/09/13 01:50:31;;;;;;;;;;;;;;;21.76;49.66;101881.54;110015;1264;22402;-50
2023/09/13 01:53:00;;;;;;;;;;;;;;;21.74;49.67;101881.11;110012;1276;22417;-49
2023/09/13 01:55:28;;;;;;;;;;;;;;;21.70;49.70;101879.02;109876;1266;22427;-49
2023/09/13 01:57:55;;;;;;;;;;;;;;;21.67;49.86;101878.64;110188;1265;23224;-49
2023/09/13 02:00:23;;;;;;;;;;;;;;;21.64;49.84;101876.84;110260;1276;22365;-49
2023/09/13 02:02:50;;;;;;;;;;;;;;;21.62;50.09;101876.80;110396;1276;23071;-49
2023/09/13 02:05:18;;;;;;;;;;;;;;;21.59;50.11;101873.36;110442;1256;22404;-49
2023/09/13 02:07:46;;;;;;;;;;;;;;;21.58;50.23;101872.03;110236;1276;22382;-50
2023/09/13 02:10:13;;;;;;;;;;;;;;;21.56;50.26;101868.77;110437;1256;22411;-50
2023/09/13 02:12:40;;;;;;;;;;;;;;;21.57;50.33;101867.66;110305;1256;22397;-50
2023/09/13 02:15:08;;;;;;;;;;;;;;;21.58;50.42;101869.56;110326;1276;22367;-49
2023/09/13 02:17:36;;;;;;;;;;;;;;;21.59;50.35;101865.47;110288;1276;23166;-50
2023/09/13 02:20:04;;;;;;;;;;;;;;;21.60;50.46;101869.98;110461;1259;22425;-49
2023/09/13 02:22:32;;;;;;;;;;;;;;;21.62;50.37;101864.60;110382;1276;22366;-49
2023/09/13 02:25:01;;;;;;;;;;;;;;;21.64;50.37;101863.44;110372;1276;23144;-50
2023/09/13 02:27:28;;;;;;;;;;;;;;;21.65;50.39;101859.83;110399;1276;22391;-49
2023/09/13 02:29:56;;;;;;;;;;;;;;;21.67;50.34;101859.21;110335;1259;22399;-49
2023/09/13 02:32:23;;;;;;;;;;;;;;;21.68;50.22;101858.08;110371;1276;22382;-50
2023/09/13 02:34:51;;;;;;;;;;;;;;;21.69;50.23;101860.88;110404;1256;22413;-50
2023/09/13 02:37:18;;;;;;;;;;;;;;;21.69;50.17;101862.65;110318;1259;22501;-49
2023/09/13 02:39:46;;;;;;;;;;;;;;;21.67;50.15;101864.86;110365;1276;22386;-50
2023/09/13 02:42:13;;;;;;;;;;;;;;;21.65;50.22;101867.09;110312;1259;23163;-50
2023/09/13 02:44:41;;;;;;;;;;;;;;;21.63;50.28;101867.20;110373;1276;22422;-50
2023/09/13 02:47:08;;;;;;;;;;;;;;;21.59;50.31;101869.84;110427;1259;22612;-49
2023/09/13 02:49:36;;;;;;;;;;;;;;;21.55;50.42;101870.05;110275;1276;23135;-50
2023/09/13 02:52:03;;;;;;;;;;;;;;;21.51;50.65;101870.08;110300;1276;22360;-50
2023/09/13 02:54:31;;;;;;;;;;;;;;;21.48;50.60;101868.32;110315;1256;22401;-50
2023/09/13 02:56:59;;;;;;;;;;;;;;;21.44;50.80;101866.94;110420;1259;22421;-49
2023/09/13 02:59:27;;;;;;;;;;;;;;;21.40;50.97;101864.30;110417;1259;22419;-49
2023/09/13 03:01:54;;;;;;;;;;;;;;;21.38;51.13;101862.10;110397;1259;22405;-50
2023/09/13 03:04:22;;;;;;;;;;;;;;;21.36;51.17;101862.36;109599;1276;1002194;-49
2023/09/13 03:06:50;;;;;;;;;;;;;;;21.36;51.28;101863.77;110274;1257;23161;-50
2023/09/13 03:09:17;;;;;;;;;;;;;;;21.36;51.38;101863.23;110333;1259;22473;-50
2023/09/13 03:11:45;;;;;;;;;;;;;;;21.37;51.35;101860.19;110344;1276;22532;-49
2023/09/13 03:14:12;;;;;;;;;;;;;;;21.39;51.44;101861.34;110428;1259;22422;-50
2023/09/13 03:16:40;;;;;;;;;;;;;;;21.42;51.38;101860.84;110248;1276;22393;-49
2023/09/13 03:19:09;;;;;;;;;;;;;;;21.44;51.37;101861.08;110422;1259;22399;-49
2023/09/13 03:21:37;;;;;;;;;;;;;;;21.47;51.40;101862.38;110323;1256;22399;-50
2023/09/13 03:24:04;;;;;;;;;;;;;;;21.50;51.34;101860.95;110390;1276;22381;-50
2023/09/13 03:26:34;;;;;;;;;;;;;;;21.54;51.28;101864.46;110443;1259;22497;-50
2023/09/13 03:29:02;;;;;;;;;;;;;;;21.57;51.25;101867.86;110106;1276;22402;-50
2023/09/13 03:31:31;;;;;;;;;;;;;;;21.59;51.24;101871.83;110337;1276;22466;-50
2023/09/13 03:34:00;;;;;;;;;;;;;;;21.59;51.22;101873.92;110283;1257;22411;-50
2023/09/13 03:36:30;;;;;;;;;;;;;;;21.59;51.18;101872.34;110169;1276;22371;-50
2023/09/13 03:38:59;;;;;;;;;;;;;;;21.58;51.13;101876.80;110249;1276;22370;-50
2023/09/13 03:41:28;;;;;;;;;;;;;;;21.56;51.20;101879.21;110354;1276;22372;-50
2023/09/13 03:43:55;;;;;;;;;;;;;;;21.53;51.24;101880.41;110385;1270;22419;-50
2023/09/13 03:46:23;;;;;;;;;;;;;;;21.51;51.26;101881.77;110389;1256;22407;-50
2023/09/13 03:48:55;;;;;;;;;;;;;;;21.47;51.30;101887.59;110367;1256;23031;-49
2023/09/13 03:51:23;;;;;;;;;;;;;;;21.45;51.59;101888.95;109252;1280;1002415;-50
2023/09/13 03:53:51;;;;;;;;;;;;;;;21.43;51.72;101888.52;110043;1258;22416;-50
2023/09/13 03:56:18;;;;;;;;;;;;;;;21.41;51.90;101891.60;109997;1263;23155;-50
2023/09/13 03:58:46;;;;;;;;;;;;;;;21.39;51.98;101891.73;110038;1261;22405;-50
2023/09/13 04:01:13;;;;;;;;;;;;;;;21.38;52.15;101895.30;110048;1263;23091;-49
2023/09/13 04:03:41;;;;;;;;;;;;;;;21.39;52.24;101896.48;109971;1280;22393;-50
2023/09/13 04:06:08;;;;;;;;;;;;;;;21.39;52.34;101896.63;109952;1280;22403;-49
2023/09/13 04:08:36;;;;;;;;;;;;;;;21.42;52.37;101895.96;110008;1263;22406;-50
2023/09/13 04:11:05;;;;;;;;;;;;;;;21.44;52.42;101895.86;110066;1258;22434;-50
2023/09/13 04:13:32;;;;;;;;;;;;;;;21.47;52.48;101898.39;109976;1265;22427;-50
2023/09/13 04:16:01;;;;;;;;;;;;;;;21.50;52.53;101903.86;109271;1262;1002709;-50
2023/09/13 04:18:29;;;;;;;;;;;;;;;21.55;52.52;101906.59;110018;1260;22434;-50
2023/09/13 04:20:56;;;;;;;;;;;;;;;21.60;52.48;101910.75;110057;1264;22403;-50
2023/09/13 04:23:24;;;;;;;;;;;;;;;21.65;52.52;101912.13;110176;1276;22412;-50
2023/09/13 04:25:52;;;;;;;;;;;;;;;21.69;52.39;101911.56;110312;1276;22362;-50
2023/09/13 04:28:20;;;;;;;;;;;;;;;21.73;52.38;101910.82;110367;1259;23076;-50
2023/09/13 04:30:47;;;;;;;;;;;;;;;21.78;52.40;101911.81;110282;1260;22401;-49
2023/09/13 04:33:15;;;;;;;;;;;;;;;21.82;52.24;101911.12;110269;1260;23189;-50
2023/09/13 04:35:43;;;;;;;;;;;;;;;21.86;52.20;101910.75;110384;1276;22370;-50
2023/09/13 04:38:10;;;;;;;;;;;;;;;21.90;52.12;101913.20;110096;1262;23240;-50
2023/09/13 04:40:41;;;;;;;;;;;;;;;21.91;52.17;101913.69;110053;1280;22459;-49
2023/09/13 04:43:09;;;;;;;;;;;;;;;21.93;52.13;101913.41;110064;1267;22412;-50
2023/09/13 04:45:38;;;;;;;;;;;;;;;21.95;52.15;101907.65;110101;1259;22451;-49
2023/09/13 04:48:05;;;;;;;;;;;;;;;21.97;52.19;101913.89;110090;1262;22416;-50
2023/09/13 04:50:33;;;;;;;;;;;;;;;21.99;52.18;101913.92;109971;1265;22431;-50
2023/09/13 04:53:00;;;;;;;;;;;;;;;22.02;52.20;101913.11;110040;1280;22531;-50
2023/09/13 04:55:28;;;;;;;;;;;;;;;22.03;52.32;101915.85;110071;1262;23111;-50
2023/09/13 04:57:55;;;;;;;;;;;;;;;22.06;52.42;101913.94;110016;1261;22426;-50
2023/09/13 05:00:26;;;;;;;;;;;;;;;22.09;52.44;101915.73;110115;1272;23178;-50
2023/09/13 05:02:54;;;;;;;;;;;;;;;22.13;52.46;101917.47;110103;1262;22448;-50
2023/09/13 05:05:22;;;;;;;;;;;;;;;22.18;52.45;101916.66;109951;1280;22437;-50
2023/09/13 05:07:50;;;;;;;;;;;;;;;22.23;52.49;101912.52;110100;1262;22414;-49
2023/09/13 05:10:18;;;;;;;;;;;;;;;22.27;52.48;101912.66;110306;1259;22422;-50
2023/09/13 05:12:49;;;;;;;;;;;;;;;22.32;52.49;101913.98;110425;1259;22407;-50
2023/09/13 05:15:17;;;;;;;;;;;;;;;22.38;52.57;101913.14;110413;1259;22408;-50
2023/09/13 05:17:44;;;;;;;;;;;;;;;22.43;52.64;101913.05;110444;1259;22428;-50
2023/09/13 05:20:11;;;;;;;;;;;;;;;22.48;52.72;101904.64;110426;1259;22408;-50
2023/09/13 05:22:39;;;;;;;;;;;;;;;22.54;52.74;101907.16;110438;1259;22411;-50
2023/09/13 05:25:07;;;;;;;;;;;;;;;22.61;52.74;101905.58;110434;1259;22414;-50
2023/09/13 05:27:34;;;;;;;;;;;;;;;22.67;52.73;101908.80;110393;1276;22366;-50
2023/09/13 05:30:02;;;;;;;;;;;;;;;22.74;52.72;101912.15;110073;1258;22437;-50
2023/09/13 05:32:29;;;;;;;;;;;;;;;22.82;52.59;101909.42;110397;1256;22463;-50
2023/09/13 05:34:57;;;;;;;;;;;;;;;22.90;52.62;101907.70;110418;1259;22430;-50
2023/09/13 05:37:25;;;;;;;;;;;;;;;22.98;52.53;101908.86;110135;1262;22417;-50
2023/09/13 05:39:53;;;;;;;;;;;;;;;23.06;52.36;101908.96;110150;1276;22493;-50
2023/09/13 05:42:20;;;;;;;;;;;;;;;23.13;52.12;101911.92;110428;1259;22432;-50
2023/09/13 05:44:48;;;;;;;;;;;;;;;23.19;52.00;101906.98;110294;1259;23072;-50
2023/09/13 05:47:15;;;;;;;;;;;;;;;23.26;52.13;101907.26;110249;1276;22416;-50
2023/09/13 05:49:43;;;;;;;;;;;;;;;23.36;52.08;101913.45;110076;1264;22427;-50
2023/09/13 05:52:10;;;;;;;;;;;;;;;23.45;51.80;101916.80;110284;1260;22401;-50
2023/09/13 05:54:38;;;;;;;;;;;;;;;23.55;51.42;101915.75;110416;1259;22417;-50
2023/09/13 05:57:05;;;;;;;;;;;;;;;23.63;51.10;101918.82;110416;1276;22366;-50
2023/09/13 05:59:35;;;;;;;;;;;;;;;23.71;50.89;101921.88;110061;1264;22442;-50
2023/09/13 06:02:02;;;;;;;;;;;;;;;23.79;50.81;101921.38;110441;1259;22395;-50
2023/09/13 06:04:36;;;;;;;;;;;;;;;23.88;50.57;101920.15;110426;1259;22402;-50
2023/09/13 06:07:04;;;;;;;;;;;;;;;23.97;50.51;101919.98;110278;1259;22412;-50
2023/09/13 06:09:32;;;;;;;;;;;;;;;24.07;50.36;101923.45;110141;1260;22409;-50
2023/09/13 06:12:01;;;;;;;;;;;;;;;24.18;49.91;101919.61;110427;1259;22407;-50
2023/09/13 06:14:30;;;;;;;;;;;;;;;24.27;49.37;101921.92;110106;1276;23053;-50
2023/09/13 06:16:58;;;;;;;;;;;;;;;24.36;49.09;101923.52;110294;1264;23056;-49
2023/09/13 06:19:25;;;;;;;;;;;;;;;24.44;48.84;101926.05;110414;1259;22414;-50
2023/09/13 06:21:55;;;;;;;;;;;;;;;24.52;48.40;101924.80;110295;1259;22405;-50
2023/09/13 06:24:24;;;;;;;;;;;;;;;24.61;48.25;101920.69;110306;1260;22418;-50
2023/09/13 06:26:52;;;;;;;;;;;;;;;24.71;48.01;101924.52;110276;1276;23048;-50
2023/09/13 06:29:20;;;;;;;;;;;;;;;24.80;47.91;101922.23;110314;1256;22399;-50
2023/09/13 06:31:48;;;;;;;;;;;;;;;24.88;47.77;101922.02;110419;1276;22386;-50
2023/09/13 06:34:31;;;;;;;;;;;;;;;24.99;47.65;101929.83;110287;1259;22426;-50
2023/09/13 06:36:59;;;;;;;;;;;;;;;25.08;47.00;101928.94;110273;1276;22378;-50
2023/09/13 06:39:27;;;;;;;;;;;;;;;25.18;47.03;101931.16;110181;1276;22386;-51
2023/09/13 06:41:56;;;;;;;;;;;;;;;25.28;47.15;101934.35;110427;1259;22409;-50
2023/09/13 06:44:24;;;;;;;;;;;;;;;25.38;46.79;101938.67;110296;1260;23166;-50
2023/09/13 06:46:54;;;;;;;;;;;;;;;25.47;46.65;101937.42;110289;1257;22424;-50
2023/09/13 06:49:30;;;;;;;;;;;;;;;25.57;45.92;101940.10;110289;1259;22421;-50
2023/09/13 06:51:58;;;;;;;;;;;;;;;25.69;45.51;101945.34;109982;1265;22429;-50
2023/09/13 06:54:29;;;;;;;;;;;;;;;25.81;45.01;101944.54;110305;1259;22402;-50
2023/09/13 06:56:59;;;;;;;;;;;;;;;25.92;44.83;101947.58;110315;1259;22398;-50
2023/09/13 06:59:31;;;;;;;;;;;;;;;26.02;44.85;101952.04;110149;1261;22445;-50
2023/09/13 07:02:11;;;;;;;;;;;;;;;26.16;44.65;101951.32;110296;1272;22381;-50
2023/09/13 07:04:58;;;;;;;;;;;;;;;26.32;44.50;101954.64;110300;1262;22400;-50
2023/09/13 07:07:28;;;;;;;;;;;;;;;26.47;43.99;101955.91;110326;1259;22393;-50
2023/09/13 07:09:56;;;;;;;;;;;;;;;26.60;43.83;101950.83;110264;1262;22419;-50
2023/09/13 07:12:23;;;;;;;;;;;;;;;26.77;43.53;101948.65;110298;1259;23180;-50
2023/09/13 07:14:55;;;;;;;;;;;;;;;26.97;43.21;101950.41;110423;1259;22421;-50
2023/09/13 07:17:22;;;;;;;;;;;;;;;27.19;42.83;101952.84;110320;1257;22407;-50
2023/09/13 07:19:50;;;;;;;;;;;;;;;27.45;42.35;101951.36;110269;1276;22383;-50
2023/09/13 07:22:17;;;;;;;;;;;;;;;27.72;42.02;101948.95;110307;1257;22427;-50
2023/09/13 07:24:45;;;;;;;;;;;;;;;27.98;41.56;101948.45;110429;1256;23157;-50
2023/09/13 07:27:12;;;;;;;;;;;;;;;28.19;41.13;101950.20;110265;1276;22555;-50
2023/09/13 07:29:40;;;;;;;;;;;;;;;28.31;41.08;101948.38;110101;1264;23066;-50
2023/09/13 07:32:08;;;;;;;;;;;;;;;28.36;41.23;101950.11;110409;1258;23141;-50
2023/09/13 07:34:35;;;;;;;;;;;;;;;28.37;41.14;101950.45;110278;1259;22394;-50
2023/09/13 07:37:04;;;;;;;;;;;;;;;28.35;41.09;101950.96;110382;1276;23121;-50
2023/09/13 07:39:31;;;;;;;;;;;;;;;28.31;41.10;101950.68;110079;1265;22413;-50
2023/09/13 07:41:58;;;;;;;;;;;;;;;28.26;41.09;101953.04;110314;1259;22393;-50
2023/09/13 07:44:26;;;;;;;;;;;;;;;28.21;41.44;101951.83;110280;1276;22378;-50
2023/09/13 07:46:53;;;;;;;;;;;;;;;28.15;41.76;101950.69;110303;1259;23027;-50
2023/09/13 07:49:21;;;;;;;;;;;;;;;28.10;41.56;101947.69;110275;1259;22408;-50
2023/09/13 07:51:49;;;;;;;;;;;;;;;28.05;41.20;101948.64;110087;1276;22419;-50
2023/09/13 07:54:16;;;;;;;;;;;;;;;27.99;41.47;101946.40;110149;1259;22431;-50
2023/09/13 07:56:45;;;;;;;;;;;;;;;27.96;41.74;101945.06;110450;1259;22480;-50
2023/09/13 07:59:15;;;;;;;;;;;;;;;27.92;42.01;101943.40;110435;1259;23163;-50
2023/09/13 08:01:43;;;;;;;;;;;;;;;27.89;42.13;101944.14;110431;1257;23031;-50
2023/09/13 08:04:11;;;;;;;;;;;;;;;27.87;42.39;101941.39;110328;1257;22404;-50
2023/09/13 08:06:41;;;;;;;;;;;;;;;27.86;42.57;101943.81;110389;1276;22409;-50
2023/09/13 08:09:09;;;;;;;;;;;;;;;27.86;42.63;101941.84;110421;1259;23042;-50
2023/09/13 08:11:36;;;;;;;;;;;;;;;27.86;42.91;101947.77;110267;1276;23090;-50
2023/09/13 08:14:04;;;;;;;;;;;;;;;27.87;42.92;101945.17;110377;1276;22399;-50
2023/09/13 08:16:32;;;;;;;;;;;;;;;27.87;42.86;101945.33;110406;1258;23138;-50
2023/09/13 08:18:59;;;;;;;;;;;;;;;27.88;42.62;101944.35;110081;1262;23103;-50
2023/09/13 08:21:27;;;;;;;;;;;;;;;27.89;42.93;101940.75;110393;1276;22423;-50
2023/09/13 08:23:54;;;;;;;;;;;;;;;27.91;43.03;101943.06;110282;1276;22372;-50
2023/09/13 08:26:22;;;;;;;;;;;;;;;27.93;43.23;101938.14;110435;1259;22411;-50
2023/09/13 08:28:54;;;;;;;;;;;;;;;27.95;43.17;101939.05;110284;1259;22417;-50
2023/09/13 08:31:23;;;;;;;;;;;;;;;27.96;43.15;101939.67;110378;1276;22423;-50
2023/09/13 08:33:54;;;;;;;;;;;;;;;27.98;43.33;101939.33;110232;1276;22395;-50
2023/09/13 08:36:22;;;;;;;;;;;;;;;28.00;43.41;101941.66;110054;1276;22595;-50
2023/09/13 08:38:49;;;;;;;;;;;;;;;28.02;43.43;101941.18;110243;1276;22543;-50
2023/09/13 08:41:17;;;;;;;;;;;;;;;28.04;43.36;101938.52;110088;1276;22420;-50
2023/09/13 08:43:45;;;;;;;;;;;;;;;28.07;43.28;101942.92;110143;1276;22424;-50
2023/09/13 08:46:12;;;;;;;;;;;;;;;28.09;43.50;101942.06;110016;1280;22424;-50
2023/09/13 08:48:41;;;;;;;;;;;;;;;28.11;43.65;101939.56;110031;1280;22445;-50
2023/09/13 08:51:09;;;;;;;;;;;;;;;28.14;43.86;101939.18;109991;1280;22443;-50
2023/09/13 08:53:37;;;;;;;;;;;;;;;28.17;44.11;101941.27;109978;1280;22464;-50
2023/09/13 08:56:06;;;;;;;;;;;;;;;28.21;44.01;101941.52;110026;1265;22592;-50
2023/09/13 08:58:35;;;;;;;;;;;;;;;28.22;44.10;101939.26;110036;1280;23128;-50
2023/09/13 09:01:03;;;;;;;;;;;;;;;28.25;43.94;101941.39;109693;1262;492104;-50
2023/09/13 09:03:31;;;;;;;;;;;;;;;28.27;44.05;101940.69;110019;1280;22416;-50
2023/09/13 09:05:59;;;;;;;;;;;;;;;28.30;44.21;101937.75;110030;1280;22418;-50
2023/09/13 09:08:26;;;;;;;;;;;;;;;28.32;44.35;101935.61;110008;1280;22377;-50
2023/09/13 09:10:56;;;;;;;;;;;;;;;28.35;44.14;101933.96;110087;1262;22424;-50
2023/09/13 09:13:24;;;;;;;;;;;;;;;28.38;44.50;101930.91;110022;1280;23224;-50
2023/09/13 09:15:52;;;;;;;;;;;;;;;28.41;44.39;101932.59;109954;1280;22634;-50
2023/09/13 09:18:20;;;;;;;;;;;;;;;28.45;44.32;101932.31;110276;1263;22608;-50
2023/09/13 09:20:47;;;;;;;;;;;;;;;28.47;43.83;101933.35;110290;1259;23052;-50
2023/09/13 09:23:15;;;;;;;;;;;;;;;28.50;43.44;101930.79;110137;1276;23301;-50
2023/09/13 09:25:44;;;;;;;;;;;;;;;28.54;43.40;101930.16;110404;1259;23055;-50
2023/09/13 09:28:12;;;;;;;;;;;;;;;28.55;43.71;101929.52;110396;1276;22392;-50
2023/09/13 09:30:40;;;;;;;;;;;;;;;28.59;43.85;101925.86;110367;1276;22397;-50
2023/09/13 09:33:07;;;;;;;;;;;;;;;28.62;43.95;101927.05;110425;1259;23487;-50
2023/09/13 09:35:36;;;;;;;;;;;;;;;28.65;43.96;101929.09;110440;1259;23309;-50
2023/09/13 09:38:04;;;;;;;;;;;;;;;28.68;44.02;101923.32;110388;1276;22403;-50
2023/09/13 09:40:40;;;;;;;;;;;;;;;28.71;43.74;101927.34;110246;1276;22423;-50
2023/09/13 09:43:08;;;;;;;;;;;;;;;28.75;43.60;101925.48;110393;1276;22413;-50
2023/09/13 09:45:35;;;;;;;;;;;;;;;28.77;43.48;101926.91;110262;1276;22420;-50
2023/09/13 09:48:03;;;;;;;;;;;;;;;28.79;42.94;101926.34;110233;1276;23200;-50
2023/09/13 09:50:31;;;;;;;;;;;;;;;28.82;42.34;101923.95;110107;1276;22399;-50
2023/09/13 09:52:58;;;;;;;;;;;;;;;28.85;42.11;101920.02;110224;1276;22575;-50
2023/09/13 09:55:26;;;;;;;;;;;;;;;28.87;41.77;101922.18;110074;1266;22427;-50
2023/09/13 09:57:53;;;;;;;;;;;;;;;28.90;41.55;101921.15;110241;1276;22377;-50
2023/09/13 10:00:22;;;;;;;;;;;;;;;28.93;40.70;101922.02;110302;1263;22472;-50
2023/09/13 10:02:50;;;;;;;;;;;;;;;28.95;40.33;101920.95;110383;1276;22424;-50
2023/09/13 10:05:18;;;;;;;;;;;;;;;28.98;39.81;101917.49;110421;1259;23023;-50
2023/09/13 10:07:50;;;;;;;;;;;;;;;29.01;39.63;101916.93;110388;1276;23153;-50
2023/09/13 10:10:28;;;;;;;;;;;;;;;29.04;39.50;101909.77;110068;1263;22428;-50
2023/09/13 10:12:56;;;;;;;;;;;;;;;29.06;39.03;101913.33;110237;1276;22365;-50
2023/09/13 10:15:24;;;;;;;;;;;;;;;29.08;38.70;101916.59;110396;1260;22421;-50
2023/09/13 10:17:53;;;;;;;;;;;;;;;29.10;38.75;101917.29;110389;1276;22398;-50
2023/09/13 10:20:21;;;;;;;;;;;;;;;29.11;38.63;101915.73;110135;1263;22426;-50
2023/09/13 10:22:49;;;;;;;;;;;;;;;29.14;38.79;101913.92;110408;1259;22413;-50
2023/09/13 10:25:17;;;;;;;;;;;;;;;29.17;38.58;101917.61;110172;1266;22450;-50
2023/09/13 10:27:46;;;;;;;;;;;;;;;29.19;38.36;101909.92;110251;1276;22393;-50
2023/09/13 10:30:21;;;;;;;;;;;;;;;29.22;38.29;101913.45;110117;1276;22426;-50
2023/09/13 10:32:50;;;;;;;;;;;;;;;29.24;38.38;101915.41;110136;1262;22412;-50
2023/09/13 10:35:18;;;;;;;;;;;;;;;29.26;38.35;101914.90;110417;1266;23185;-49
2023/09/13 10:37:48;;;;;;;;;;;;;;;29.29;38.26;101912.36;110373;1276;22410;-50
2023/09/13 10:40:23;;;;;;;;;;;;;;;29.31;38.23;101913.42;110409;1276;22419;-50
2023/09/13 10:42:50;;;;;;;;;;;;;;;29.33;38.27;101911.23;110373;1276;22372;-50
2023/09/13 10:45:18;;;;;;;;;;;;;;;29.36;38.13;101906.40;110283;1259;22470;-50
2023/09/13 10:47:49;;;;;;;;;;;;;;;29.38;38.32;101906.23;110253;1276;22403;-50
2023/09/13 10:50:17;;;;;;;;;;;;;;;29.40;38.45;101905.17;110340;1276;22405;-50
2023/09/13 10:52:44;;;;;;;;;;;;;;;29.41;38.09;101905.77;110385;1276;22497;-50
2023/09/13 10:55:12;;;;;;;;;;;;;;;29.42;37.66;101904.48;110066;1276;22427;-50
2023/09/13 10:57:40;;;;;;;;;;;;;;;29.41;37.90;101906.64;110279;1276;23074;-50
2023/09/13 11:00:11;;;;;;;;;;;;;;;29.41;37.89;101903.13;110261;1276;22401;-50
2023/09/13 11:02:39;;;;;;;;;;;;;;;29.41;38.07;101902.02;110257;1276;22392;-50
2023/09/13 11:05:07;;;;;;;;;;;;;;;29.41;38.08;101899.14;110249;1276;23049;-50
2023/09/13 11:07:41;;;;;;;;;;;;;;;29.42;37.83;101903.01;110253;1276;23063;-50
2023/09/13 11:10:13;;;;;;;;;;;;;;;29.43;37.71;101902.20;110241;1276;22495;-50
2023/09/13 11:12:43;;;;;;;;;;;;;;;29.44;37.81;101898.55;110278;1276;22423;-50
2023/09/13 11:15:14;;;;;;;;;;;;;;;29.44;37.78;101900.37;110252;1276;22410;-50
2023/09/13 11:17:41;;;;;;;;;;;;;;;29.44;37.85;101896.08;110401;1276;23181;-50
2023/09/13 11:20:34;;;;;;;;;;;;;;;29.43;38.26;101895.82;110108;1263;22418;-50
2023/09/13 11:23:08;;;;;;;;;;;;;;;29.42;37.86;101896.75;110270;1260;23033;-50
2023/09/13 11:26:01;;;;;;;;;;;;;;;29.42;37.95;101891.21;110282;1276;22397;-50
2023/09/13 11:28:36;;;;;;;;;;;;;;;29.43;38.20;101892.42;110428;1260;22397;-50
2023/09/13 11:31:04;;;;;;;;;;;;;;;29.42;38.19;101888.72;110415;1276;22400;-50
2023/09/13 11:33:37;;;;;;;;;;;;;;;29.42;37.79;101886.23;110247;1276;23084;-50
2023/09/13 11:36:05;;;;;;;;;;;;;;;29.42;37.55;101879.45;110330;1259;23050;-50
2023/09/13 11:38:33;;;;;;;;;;;;;;;29.42;37.57;101885.70;110402;1276;22423;-50
2023/09/13 11:41:01;;;;;;;;;;;;;;;29.41;37.29;101885.38;110239;1276;22414;-50
2023/09/13 11:43:28;;;;;;;;;;;;;;;29.41;37.21;101884.50;110308;1265;22419;-50
2023/09/13 11:46:01;;;;;;;;;;;;;;;29.42;37.63;101887.26;110245;1276;22402;-50
2023/09/13 11:48:40;;;;;;;;;;;;;;;29.43;37.55;101888.83;110397;1276;22561;-50
2023/09/13 11:51:26;;;;;;;;;;;;;;;29.43;37.53;101883.46;110403;1276;22395;-50
2023/09/13 11:54:15;;;;;;;;;;;;;;;29.43;37.82;101886.31;110291;1276;22411;-50
2023/09/13 11:56:45;;;;;;;;;;;;;;;29.43;38.04;101884.55;110409;1260;22415;-50
2023/09/13 11:59:15;;;;;;;;;;;;;;;29.43;38.18;101885.44;109648;1260;1002945;-50
2023/09/13 12:01:49;;;;;;;;;;;;;;;29.43;38.52;101882.92;110059;1276;22407;-50
2023/09/13 12:04:25;;;;;;;;;;;;;;;29.44;38.29;101885.38;110142;1276;22403;-49
2023/09/13 12:06:56;;;;;;;;;;;;;;;29.43;38.24;101884.00;110382;1276;23195;-49
2023/09/13 12:09:26;;;;;;;;;;;;;;;29.42;38.36;101882.63;110315;1260;23145;-50
2023/09/13 12:11:57;;;;;;;;;;;;;;;29.41;38.57;101880.92;110286;1276;22397;-50
2023/09/13 12:14:32;;;;;;;;;;;;;;;29.40;38.76;101882.77;110038;1263;23190;-48
2023/09/13 12:17:19;;;;;;;;;;;;;;;29.39;39.04;101888.41;110015;1280;22421;-50
2023/09/13 12:19:47;;;;;;;;;;;;;;;29.38;39.33;101886.88;110076;1262;22416;-50
2023/09/13 12:22:15;;;;;;;;;;;;;;;29.38;39.37;101884.42;109959;1261;22422;-50
2023/09/13 12:24:50;;;;;;;;;;;;;;;29.38;39.19;101884.61;110027;1263;22434;-50
2023/09/13 12:27:18;;;;;;;;;;;;;;;29.36;39.08;101887.60;109936;1281;22413;-50
2023/09/13 12:29:46;;;;;;;;;;;;;;;29.35;38.87;101886.45;110039;1281;22433;-50
2023/09/13 12:32:15;;;;;;;;;;;;;;;29.33;39.05;101882.67;109958;1261;22427;-50
2023/09/13 12:34:42;;;;;;;;;;;;;;;29.32;38.85;101878.46;109989;1281;22435;-50